sensor_id;sensor_type;location;lat;lon;timestamp;P1;durP1;ratioP1;P2;durP2;ratioP2
25409;SDS011;13339;50.840;4.346;2023-05-24T00:01:14;21.60;;;3.83;;
25409;SDS011;13339;50.840;4.346;2023-05-24T00:03:40;16.90;;;3.90;;
25409;SDS011;13339;50.840;4.346;2023-05-24T00:06:06;14.60;;;3.83;;
25409;SDS011;13339;50.840;4.346;2023-05-24T00:08:32;14.30;;;3.40;;
25409;SDS011;13339;50.840;4.346;2023-05-24T00:10:59;20.03;;;4.03;;
25409;SDS011;13339;50.840;4.346;2023-05-24T00:13:25;14.83;;;3.80;;
25409;SDS011;13339;50.840;4.346;2023-05-24T00:15:51;18.87;;;4.30;;
25409;SDS011;13339;50.840;4.346;2023-05-24T00:18:17;13.40;;;3.57;;
25409;SDS011;13339;50.840;4.346;2023-05-24T00:20:43;14.20;;;4.07;;
25409;SDS011;13339;50.840;4.346;2023-05-24T00:23:08;13.70;;;3.60;;
25409;SDS011;13339;50.840;4.346;2023-05-24T00:25:35;20.10;;;4.50;;
25409;SDS011;13339;50.840;4.346;2023-05-24T00:28:01;12.93;;;3.77;;
25409;SDS011;13339;50.840;4.346;2023-05-24T00:30:26;16.93;;;3.73;;
25409;SDS011;13339;50.840;4.346;2023-05-24T00:32:52;18.30;;;4.40;;
25409;SDS011;13339;50.840;4.346;2023-05-24T00:35:18;21.70;;;3.90;;
25409;SDS011;13339;50.840;4.346;2023-05-24T00:37:43;21.40;;;4.03;;
25409;SDS011;13339;50.840;4.346;2023-05-24T00:40:10;13.07;;;3.97;;
25409;SDS011;13339;50.840;4.346;2023-05-24T00:42:36;18.93;;;4.10;;
25409;SDS011;13339;50.840;4.346;2023-05-24T00:45:02;17.50;;;4.67;;
25409;SDS011;13339;50.840;4.346;2023-05-24T00:47:28;18.03;;;4.57;;
25409;SDS011;13339;50.840;4.346;2023-05-24T00:49:54;15.43;;;4.33;;
25409;SDS011;13339;50.840;4.346;2023-05-24T00:52:20;17.33;;;4.40;;
25409;SDS011;13339;50.840;4.346;2023-05-24T00:54:46;12.93;;;3.40;;
25409;SDS011;13339;50.840;4.346;2023-05-24T00:57:12;18.20;;;3.80;;
25409;SDS011;13339;50.840;4.346;2023-05-24T00:59:38;14.27;;;3.97;;
25409;SDS011;13339;50.840;4.346;2023-05-24T01:02:05;10.83;;;3.30;;
25409;SDS011;13339;50.840;4.346;2023-05-24T01:04:30;19.90;;;4.17;;
25409;SDS011;13339;50.840;4.346;2023-05-24T01:18:13;19.33;;;3.73;;
25409;SDS011;13339;50.840;4.346;2023-05-24T01:20:46;21.13;;;3.93;;
25409;SDS011;13339;50.840;4.346;2023-05-24T01:23:30;12.87;;;4.47;;
25409;SDS011;13339;50.840;4.346;2023-05-24T01:28:41;32.17;;;6.23;;
25409;SDS011;13339;50.840;4.346;2023-05-24T01:31:08;17.10;;;5.53;;
25409;SDS011;13339;50.840;4.346;2023-05-24T01:33:43;17.83;;;4.43;;
25409;SDS011;13339;50.840;4.346;2023-05-24T01:36:08;20.83;;;4.80;;
25409;SDS011;13339;50.840;4.346;2023-05-24T01:38:35;17.13;;;4.57;;
25409;SDS011;13339;50.840;4.346;2023-05-24T01:41:04;20.50;;;4.50;;
25409;SDS011;13339;50.840;4.346;2023-05-24T01:43:51;19.43;;;4.77;;
25409;SDS011;13339;50.840;4.346;2023-05-24T01:46:28;17.80;;;4.47;;
25409;SDS011;13339;50.840;4.346;2023-05-24T01:49:36;10.70;;;4.27;;
25409;SDS011;13339;50.840;4.346;2023-05-24T01:54:25;18.33;;;4.87;;
25409;SDS011;13339;50.840;4.346;2023-05-24T01:56:52;19.67;;;4.10;;
25409;SDS011;13339;50.840;4.346;2023-05-24T01:59:20;16.00;;;4.50;;
25409;SDS011;13339;50.840;4.346;2023-05-24T02:01:48;26.07;;;5.30;;
25409;SDS011;13339;50.840;4.346;2023-05-24T02:04:15;19.80;;;4.73;;
25409;SDS011;13339;50.840;4.346;2023-05-24T02:06:42;16.23;;;4.17;;
25409;SDS011;13339;50.840;4.346;2023-05-24T02:09:07;23.13;;;4.63;;
25409;SDS011;13339;50.840;4.346;2023-05-24T02:11:33;26.60;;;4.83;;
25409;SDS011;13339;50.840;4.346;2023-05-24T02:13:59;21.10;;;4.60;;
25409;SDS011;13339;50.840;4.346;2023-05-24T02:16:24;20.37;;;4.80;;
25409;SDS011;13339;50.840;4.346;2023-05-24T02:18:50;20.57;;;5.23;;
25409;SDS011;13339;50.840;4.346;2023-05-24T02:21:16;20.87;;;3.87;;
25409;SDS011;13339;50.840;4.346;2023-05-24T02:23:42;26.40;;;5.53;;
25409;SDS011;13339;50.840;4.346;2023-05-24T02:26:08;23.27;;;4.73;;
25409;SDS011;13339;50.840;4.346;2023-05-24T02:28:36;18.63;;;3.77;;
25409;SDS011;13339;50.840;4.346;2023-05-24T02:31:01;30.17;;;4.57;;
25409;SDS011;13339;50.840;4.346;2023-05-24T02:33:27;15.80;;;4.70;;
25409;SDS011;13339;50.840;4.346;2023-05-24T02:35:54;24.00;;;4.60;;
25409;SDS011;13339;50.840;4.346;2023-05-24T02:38:20;17.83;;;3.97;;
25409;SDS011;13339;50.840;4.346;2023-05-24T02:40:46;31.23;;;5.20;;
25409;SDS011;13339;50.840;4.346;2023-05-24T02:43:12;16.97;;;4.53;;
25409;SDS011;13339;50.840;4.346;2023-05-24T02:45:37;20.03;;;5.50;;
25409;SDS011;13339;50.840;4.346;2023-05-24T02:48:03;23.53;;;4.23;;
25409;SDS011;13339;50.840;4.346;2023-05-24T02:50:29;16.23;;;4.43;;
25409;SDS011;13339;50.840;4.346;2023-05-24T02:52:54;24.33;;;5.73;;
25409;SDS011;13339;50.840;4.346;2023-05-24T02:55:20;25.70;;;5.83;;
25409;SDS011;13339;50.840;4.346;2023-05-24T02:57:46;21.17;;;4.47;;
25409;SDS011;13339;50.840;4.346;2023-05-24T03:00:12;24.03;;;5.03;;
25409;SDS011;13339;50.840;4.346;2023-05-24T03:02:39;27.43;;;5.40;;
25409;SDS011;13339;50.840;4.346;2023-05-24T03:05:07;24.67;;;5.30;;
25409;SDS011;13339;50.840;4.346;2023-05-24T03:07:33;21.73;;;4.80;;
25409;SDS011;13339;50.840;4.346;2023-05-24T03:09:58;22.60;;;4.43;;
25409;SDS011;13339;50.840;4.346;2023-05-24T03:12:24;20.83;;;4.87;;
25409;SDS011;13339;50.840;4.346;2023-05-24T03:14:50;23.27;;;5.33;;
25409;SDS011;13339;50.840;4.346;2023-05-24T03:17:15;31.17;;;6.03;;
25409;SDS011;13339;50.840;4.346;2023-05-24T03:19:41;24.80;;;5.33;;
25409;SDS011;13339;50.840;4.346;2023-05-24T03:22:06;23.27;;;4.47;;
25409;SDS011;13339;50.840;4.346;2023-05-24T03:24:32;26.80;;;5.30;;
25409;SDS011;13339;50.840;4.346;2023-05-24T03:26:58;21.60;;;4.67;;
25409;SDS011;13339;50.840;4.346;2023-05-24T03:29:24;25.17;;;5.33;;
25409;SDS011;13339;50.840;4.346;2023-05-24T03:31:50;19.00;;;4.90;;
25409;SDS011;13339;50.840;4.346;2023-05-24T03:34:16;19.00;;;4.60;;
25409;SDS011;13339;50.840;4.346;2023-05-24T03:36:42;17.23;;;4.90;;
25409;SDS011;13339;50.840;4.346;2023-05-24T03:39:07;14.70;;;4.50;;
25409;SDS011;13339;50.840;4.346;2023-05-24T03:41:33;15.27;;;4.97;;
25409;SDS011;13339;50.840;4.346;2023-05-24T03:43:59;16.87;;;4.53;;
25409;SDS011;13339;50.840;4.346;2023-05-24T03:46:25;16.70;;;4.50;;
25409;SDS011;13339;50.840;4.346;2023-05-24T03:48:50;24.90;;;4.77;;
25409;SDS011;13339;50.840;4.346;2023-05-24T03:51:16;22.93;;;5.03;;
25409;SDS011;13339;50.840;4.346;2023-05-24T03:53:42;21.27;;;4.93;;
25409;SDS011;13339;50.840;4.346;2023-05-24T03:56:07;21.13;;;5.00;;
25409;SDS011;13339;50.840;4.346;2023-05-24T03:58:33;18.53;;;4.50;;
25409;SDS011;13339;50.840;4.346;2023-05-24T04:00:59;15.73;;;4.60;;
25409;SDS011;13339;50.840;4.346;2023-05-24T04:03:25;17.93;;;4.43;;
25409;SDS011;13339;50.840;4.346;2023-05-24T04:05:52;21.07;;;4.70;;
25409;SDS011;13339;50.840;4.346;2023-05-24T04:08:18;13.87;;;4.77;;
25409;SDS011;13339;50.840;4.346;2023-05-24T04:10:44;18.03;;;4.47;;
25409;SDS011;13339;50.840;4.346;2023-05-24T04:13:10;18.63;;;5.23;;
25409;SDS011;13339;50.840;4.346;2023-05-24T04:15:35;25.13;;;5.70;;
25409;SDS011;13339;50.840;4.346;2023-05-24T04:18:04;18.40;;;5.47;;
25409;SDS011;13339;50.840;4.346;2023-05-24T04:20:30;23.07;;;4.97;;
25409;SDS011;13339;50.840;4.346;2023-05-24T04:22:56;22.10;;;4.73;;
25409;SDS011;13339;50.840;4.346;2023-05-24T04:25:22;18.47;;;4.97;;
25409;SDS011;13339;50.840;4.346;2023-05-24T04:27:48;17.27;;;5.30;;
25409;SDS011;13339;50.840;4.346;2023-05-24T04:30:14;22.63;;;4.60;;
25409;SDS011;13339;50.840;4.346;2023-05-24T04:32:40;19.83;;;5.50;;
25409;SDS011;13339;50.840;4.346;2023-05-24T04:35:08;18.60;;;5.27;;
25409;SDS011;13339;50.840;4.346;2023-05-24T04:37:37;24.70;;;5.57;;
25409;SDS011;13339;50.840;4.346;2023-05-24T04:40:03;27.80;;;5.50;;
25409;SDS011;13339;50.840;4.346;2023-05-24T04:42:30;25.47;;;5.50;;
25409;SDS011;13339;50.840;4.346;2023-05-24T04:44:56;18.57;;;4.83;;
25409;SDS011;13339;50.840;4.346;2023-05-24T04:47:22;25.23;;;5.13;;
25409;SDS011;13339;50.840;4.346;2023-05-24T04:49:47;25.37;;;5.40;;
25409;SDS011;13339;50.840;4.346;2023-05-24T04:52:13;16.60;;;4.73;;
25409;SDS011;13339;50.840;4.346;2023-05-24T04:54:40;21.73;;;6.20;;
25409;SDS011;13339;50.840;4.346;2023-05-24T04:57:05;20.90;;;5.70;;
25409;SDS011;13339;50.840;4.346;2023-05-24T04:59:31;15.97;;;5.70;;
25409;SDS011;13339;50.840;4.346;2023-05-24T05:01:57;17.03;;;5.60;;
25409;SDS011;13339;50.840;4.346;2023-05-24T05:04:22;22.93;;;5.83;;
25409;SDS011;13339;50.840;4.346;2023-05-24T05:06:48;22.10;;;6.23;;
25409;SDS011;13339;50.840;4.346;2023-05-24T05:09:14;24.40;;;6.90;;
25409;SDS011;13339;50.840;4.346;2023-05-24T05:11:40;28.97;;;6.50;;
25409;SDS011;13339;50.840;4.346;2023-05-24T05:14:05;23.87;;;6.60;;
25409;SDS011;13339;50.840;4.346;2023-05-24T05:16:33;24.10;;;5.60;;
25409;SDS011;13339;50.840;4.346;2023-05-24T05:19:00;18.70;;;6.03;;
25409;SDS011;13339;50.840;4.346;2023-05-24T05:21:28;23.77;;;6.40;;
25409;SDS011;13339;50.840;4.346;2023-05-24T05:23:57;31.20;;;6.70;;
25409;SDS011;13339;50.840;4.346;2023-05-24T05:26:23;41.47;;;6.53;;
25409;SDS011;13339;50.840;4.346;2023-05-24T05:28:50;35.57;;;7.03;;
25409;SDS011;13339;50.840;4.346;2023-05-24T05:31:16;29.00;;;6.97;;
25409;SDS011;13339;50.840;4.346;2023-05-24T05:33:42;38.63;;;7.00;;
25409;SDS011;13339;50.840;4.346;2023-05-24T05:36:08;28.00;;;6.20;;
25409;SDS011;13339;50.840;4.346;2023-05-24T05:38:33;27.87;;;6.53;;
25409;SDS011;13339;50.840;4.346;2023-05-24T05:40:59;34.40;;;7.07;;
25409;SDS011;13339;50.840;4.346;2023-05-24T05:43:24;31.03;;;6.83;;
25409;SDS011;13339;50.840;4.346;2023-05-24T05:45:50;29.77;;;7.83;;
25409;SDS011;13339;50.840;4.346;2023-05-24T05:48:16;25.83;;;6.10;;
25409;SDS011;13339;50.840;4.346;2023-05-24T05:50:41;25.37;;;7.20;;
25409;SDS011;13339;50.840;4.346;2023-05-24T05:53:07;26.97;;;6.73;;
25409;SDS011;13339;50.840;4.346;2023-05-24T05:55:32;22.87;;;6.37;;
25409;SDS011;13339;50.840;4.346;2023-05-24T05:57:58;29.63;;;6.30;;
25409;SDS011;13339;50.840;4.346;2023-05-24T06:00:24;27.60;;;6.37;;
25409;SDS011;13339;50.840;4.346;2023-05-24T06:02:50;29.53;;;6.60;;
25409;SDS011;13339;50.840;4.346;2023-05-24T06:05:16;31.93;;;6.17;;
25409;SDS011;13339;50.840;4.346;2023-05-24T06:07:42;26.30;;;5.77;;
25409;SDS011;13339;50.840;4.346;2023-05-24T06:10:08;32.23;;;6.23;;
25409;SDS011;13339;50.840;4.346;2023-05-24T06:12:34;26.80;;;6.47;;
25409;SDS011;13339;50.840;4.346;2023-05-24T06:15:00;25.20;;;7.30;;
25409;SDS011;13339;50.840;4.346;2023-05-24T06:17:25;28.43;;;7.50;;
25409;SDS011;13339;50.840;4.346;2023-05-24T06:19:52;32.40;;;6.83;;
25409;SDS011;13339;50.840;4.346;2023-05-24T06:22:18;28.67;;;6.70;;
25409;SDS011;13339;50.840;4.346;2023-05-24T06:24:44;24.00;;;6.30;;
25409;SDS011;13339;50.840;4.346;2023-05-24T06:27:10;19.37;;;4.70;;
25409;SDS011;13339;50.840;4.346;2023-05-24T06:29:35;30.47;;;6.67;;
25409;SDS011;13339;50.840;4.346;2023-05-24T06:32:01;18.80;;;6.10;;
25409;SDS011;13339;50.840;4.346;2023-05-24T06:34:27;20.53;;;5.80;;
25409;SDS011;13339;50.840;4.346;2023-05-24T06:36:53;28.67;;;5.93;;
25409;SDS011;13339;50.840;4.346;2023-05-24T06:39:19;21.70;;;5.67;;
25409;SDS011;13339;50.840;4.346;2023-05-24T06:41:45;28.80;;;6.07;;
25409;SDS011;13339;50.840;4.346;2023-05-24T06:44:11;19.80;;;5.97;;
25409;SDS011;13339;50.840;4.346;2023-05-24T06:46:38;26.67;;;6.50;;
25409;SDS011;13339;50.840;4.346;2023-05-24T06:49:03;30.43;;;5.70;;
25409;SDS011;13339;50.840;4.346;2023-05-24T06:51:29;21.07;;;5.73;;
25409;SDS011;13339;50.840;4.346;2023-05-24T06:53:57;22.93;;;6.17;;
25409;SDS011;13339;50.840;4.346;2023-05-24T06:56:23;21.63;;;5.50;;
25409;SDS011;13339;50.840;4.346;2023-05-24T06:58:50;19.80;;;4.87;;
25409;SDS011;13339;50.840;4.346;2023-05-24T07:01:16;22.13;;;6.17;;
25409;SDS011;13339;50.840;4.346;2023-05-24T07:03:42;20.20;;;5.63;;
25409;SDS011;13339;50.840;4.346;2023-05-24T07:06:08;27.07;;;4.23;;
25409;SDS011;13339;50.840;4.346;2023-05-24T07:08:37;16.80;;;4.43;;
25409;SDS011;13339;50.840;4.346;2023-05-24T07:11:06;14.70;;;4.20;;
25409;SDS011;13339;50.840;4.346;2023-05-24T07:13:33;19.37;;;4.73;;
25409;SDS011;13339;50.840;4.346;2023-05-24T07:15:59;24.67;;;5.37;;
25409;SDS011;13339;50.840;4.346;2023-05-24T07:18:25;22.33;;;5.10;;
25409;SDS011;13339;50.840;4.346;2023-05-24T07:20:50;18.73;;;6.37;;
25409;SDS011;13339;50.840;4.346;2023-05-24T07:23:16;28.27;;;6.00;;
25409;SDS011;13339;50.840;4.346;2023-05-24T07:25:41;22.00;;;6.37;;
25409;SDS011;13339;50.840;4.346;2023-05-24T07:28:07;20.87;;;6.10;;
25409;SDS011;13339;50.840;4.346;2023-05-24T07:30:33;19.23;;;6.13;;
25409;SDS011;13339;50.840;4.346;2023-05-24T07:32:59;24.07;;;5.60;;
25409;SDS011;13339;50.840;4.346;2023-05-24T07:35:25;21.73;;;6.40;;
25409;SDS011;13339;50.840;4.346;2023-05-24T07:37:53;27.37;;;7.03;;
25409;SDS011;13339;50.840;4.346;2023-05-24T07:40:18;24.10;;;7.10;;
25409;SDS011;13339;50.840;4.346;2023-05-24T07:42:44;19.13;;;5.77;;
25409;SDS011;13339;50.840;4.346;2023-05-24T07:45:11;25.63;;;6.90;;
25409;SDS011;13339;50.840;4.346;2023-05-24T07:47:38;22.33;;;6.80;;
25409;SDS011;13339;50.840;4.346;2023-05-24T07:50:04;22.70;;;7.27;;
25409;SDS011;13339;50.840;4.346;2023-05-24T07:52:30;19.83;;;7.57;;
25409;SDS011;13339;50.840;4.346;2023-05-24T07:54:55;25.93;;;7.07;;
25409;SDS011;13339;50.840;4.346;2023-05-24T07:57:21;17.37;;;6.40;;
25409;SDS011;13339;50.840;4.346;2023-05-24T07:59:47;23.67;;;6.50;;
25409;SDS011;13339;50.840;4.346;2023-05-24T08:02:13;16.20;;;6.10;;
25409;SDS011;13339;50.840;4.346;2023-05-24T08:04:40;21.60;;;5.93;;
25409;SDS011;13339;50.840;4.346;2023-05-24T08:07:07;20.37;;;6.17;;
25409;SDS011;13339;50.840;4.346;2023-05-24T08:09:33;20.10;;;5.40;;
25409;SDS011;13339;50.840;4.346;2023-05-24T08:12:00;20.33;;;6.60;;
25409;SDS011;13339;50.840;4.346;2023-05-24T08:14:27;14.83;;;5.43;;
25409;SDS011;13339;50.840;4.346;2023-05-24T08:16:53;21.10;;;5.47;;
25409;SDS011;13339;50.840;4.346;2023-05-24T08:19:18;16.67;;;4.70;;
25409;SDS011;13339;50.840;4.346;2023-05-24T08:21:45;20.03;;;4.70;;
25409;SDS011;13339;50.840;4.346;2023-05-24T08:24:10;18.03;;;4.90;;
25409;SDS011;13339;50.840;4.346;2023-05-24T08:26:36;20.27;;;5.07;;
25409;SDS011;13339;50.840;4.346;2023-05-24T08:29:02;21.23;;;5.33;;
25409;SDS011;13339;50.840;4.346;2023-05-24T08:31:28;19.00;;;4.70;;
25409;SDS011;13339;50.840;4.346;2023-05-24T08:33:54;15.53;;;4.23;;
25409;SDS011;13339;50.840;4.346;2023-05-24T08:36:21;17.60;;;4.90;;
25409;SDS011;13339;50.840;4.346;2023-05-24T08:38:47;19.87;;;5.20;;
25409;SDS011;13339;50.840;4.346;2023-05-24T08:41:12;18.87;;;5.47;;
25409;SDS011;13339;50.840;4.346;2023-05-24T08:43:38;16.50;;;5.40;;
25409;SDS011;13339;50.840;4.346;2023-05-24T08:46:05;19.20;;;6.00;;
25409;SDS011;13339;50.840;4.346;2023-05-24T08:48:32;17.83;;;5.67;;
25409;SDS011;13339;50.840;4.346;2023-05-24T08:51:02;23.77;;;6.97;;
25409;SDS011;13339;50.840;4.346;2023-05-24T08:53:29;15.33;;;6.83;;
25409;SDS011;13339;50.840;4.346;2023-05-24T08:55:56;26.70;;;7.07;;
25409;SDS011;13339;50.840;4.346;2023-05-24T08:58:22;18.97;;;7.20;;
25409;SDS011;13339;50.840;4.346;2023-05-24T09:00:48;19.47;;;6.93;;
25409;SDS011;13339;50.840;4.346;2023-05-24T09:03:14;20.67;;;6.63;;
25409;SDS011;13339;50.840;4.346;2023-05-24T09:05:41;14.30;;;5.73;;
25409;SDS011;13339;50.840;4.346;2023-05-24T09:08:07;25.10;;;8.03;;
25409;SDS011;13339;50.840;4.346;2023-05-24T09:10:34;22.10;;;8.57;;
25409;SDS011;13339;50.840;4.346;2023-05-24T09:13:01;20.63;;;7.33;;
25409;SDS011;13339;50.840;4.346;2023-05-24T09:15:27;20.20;;;7.57;;
25409;SDS011;13339;50.840;4.346;2023-05-24T09:17:53;22.33;;;7.83;;
25409;SDS011;13339;50.840;4.346;2023-05-24T09:20:19;26.40;;;9.27;;
25409;SDS011;13339;50.840;4.346;2023-05-24T09:22:50;32.07;;;9.27;;
25409;SDS011;13339;50.840;4.346;2023-05-24T09:25:18;18.40;;;9.13;;
25409;SDS011;13339;50.840;4.346;2023-05-24T09:27:50;22.63;;;9.80;;
25409;SDS011;13339;50.840;4.346;2023-05-24T09:30:16;24.07;;;9.70;;
25409;SDS011;13339;50.840;4.346;2023-05-24T09:32:56;22.47;;;9.30;;
25409;SDS011;13339;50.840;4.346;2023-05-24T09:35:22;24.20;;;12.03;;
25409;SDS011;13339;50.840;4.346;2023-05-24T09:37:52;29.83;;;10.03;;
25409;SDS011;13339;50.840;4.346;2023-05-24T09:40:19;29.47;;;11.40;;
25409;SDS011;13339;50.840;4.346;2023-05-24T09:42:45;18.67;;;9.97;;
25409;SDS011;13339;50.840;4.346;2023-05-24T09:45:11;23.63;;;10.77;;
25409;SDS011;13339;50.840;4.346;2023-05-24T09:47:40;22.30;;;10.97;;
25409;SDS011;13339;50.840;4.346;2023-05-24T09:50:13;24.23;;;10.43;;
25409;SDS011;13339;50.840;4.346;2023-05-24T09:52:41;27.50;;;11.63;;
25409;SDS011;13339;50.840;4.346;2023-05-24T09:55:11;26.93;;;11.27;;
25409;SDS011;13339;50.840;4.346;2023-05-24T09:57:38;21.07;;;11.40;;
25409;SDS011;13339;50.840;4.346;2023-05-24T10:00:04;26.77;;;12.50;;
25409;SDS011;13339;50.840;4.346;2023-05-24T10:02:38;28.13;;;11.17;;
25409;SDS011;13339;50.840;4.346;2023-05-24T10:05:04;21.30;;;10.97;;
25409;SDS011;13339;50.840;4.346;2023-05-24T10:07:31;20.20;;;11.53;;
25409;SDS011;13339;50.840;4.346;2023-05-24T10:09:58;24.03;;;11.90;;
25409;SDS011;13339;50.840;4.346;2023-05-24T10:12:25;21.63;;;10.70;;
25409;SDS011;13339;50.840;4.346;2023-05-24T10:14:52;26.33;;;11.83;;
25409;SDS011;13339;50.840;4.346;2023-05-24T10:17:21;27.57;;;11.53;;
25409;SDS011;13339;50.840;4.346;2023-05-24T10:19:47;26.27;;;11.40;;
25409;SDS011;13339;50.840;4.346;2023-05-24T10:22:13;30.43;;;11.30;;
25409;SDS011;13339;50.840;4.346;2023-05-24T10:24:45;25.93;;;9.63;;
25409;SDS011;13339;50.840;4.346;2023-05-24T10:27:13;19.60;;;9.80;;
25409;SDS011;13339;50.840;4.346;2023-05-24T10:29:51;14.90;;;9.07;;
25409;SDS011;13339;50.840;4.346;2023-05-24T10:32:30;18.93;;;7.70;;
25409;SDS011;13339;50.840;4.346;2023-05-24T10:34:57;14.23;;;7.33;;
25409;SDS011;13339;50.840;4.346;2023-05-24T10:37:24;19.03;;;7.97;;
25409;SDS011;13339;50.840;4.346;2023-05-24T10:39:52;19.83;;;7.17;;
25409;SDS011;13339;50.840;4.346;2023-05-24T10:42:18;15.37;;;6.73;;
25409;SDS011;13339;50.840;4.346;2023-05-24T10:44:44;18.03;;;6.10;;
25409;SDS011;13339;50.840;4.346;2023-05-24T10:47:10;22.13;;;7.17;;
25409;SDS011;13339;50.840;4.346;2023-05-24T10:49:47;17.83;;;6.50;;
25409;SDS011;13339;50.840;4.346;2023-05-24T10:52:19;22.20;;;7.20;;
25409;SDS011;13339;50.840;4.346;2023-05-24T10:55:04;19.57;;;6.47;;
25409;SDS011;13339;50.840;4.346;2023-05-24T10:57:32;17.80;;;5.90;;
25409;SDS011;13339;50.840;4.346;2023-05-24T11:02:59;16.87;;;5.93;;
25409;SDS011;13339;50.840;4.346;2023-05-24T11:08:10;19.07;;;5.90;;
25409;SDS011;13339;50.840;4.346;2023-05-24T11:10:37;16.97;;;5.87;;
25409;SDS011;13339;50.840;4.346;2023-05-24T11:13:03;19.90;;;6.23;;
25409;SDS011;13339;50.840;4.346;2023-05-24T11:15:33;19.13;;;5.90;;
25409;SDS011;13339;50.840;4.346;2023-05-24T11:20:34;11.03;;;5.03;;
25409;SDS011;13339;50.840;4.346;2023-05-24T11:23:03;15.73;;;4.73;;
25409;SDS011;13339;50.840;4.346;2023-05-24T11:25:31;13.20;;;4.80;;
25409;SDS011;13339;50.840;4.346;2023-05-24T11:27:57;13.57;;;5.30;;
25409;SDS011;13339;50.840;4.346;2023-05-24T11:30:25;12.33;;;4.80;;
25409;SDS011;13339;50.840;4.346;2023-05-24T11:32:50;12.33;;;4.33;;
25409;SDS011;13339;50.840;4.346;2023-05-24T11:35:17;10.00;;;4.53;;
25409;SDS011;13339;50.840;4.346;2023-05-24T11:37:43;16.43;;;4.90;;
25409;SDS011;13339;50.840;4.346;2023-05-24T11:40:09;13.27;;;4.30;;
25409;SDS011;13339;50.840;4.346;2023-05-24T11:42:36;16.33;;;4.80;;
25409;SDS011;13339;50.840;4.346;2023-05-24T11:45:02;11.93;;;5.07;;
25409;SDS011;13339;50.840;4.346;2023-05-24T11:47:33;9.47;;;4.40;;
25409;SDS011;13339;50.840;4.346;2023-05-24T11:50:00;13.10;;;4.70;;
25409;SDS011;13339;50.840;4.346;2023-05-24T11:52:26;11.77;;;4.37;;
25409;SDS011;13339;50.840;4.346;2023-05-24T11:54:51;14.07;;;4.50;;
25409;SDS011;13339;50.840;4.346;2023-05-24T11:57:20;8.80;;;4.10;;
25409;SDS011;13339;50.840;4.346;2023-05-24T11:59:53;17.77;;;4.37;;
25409;SDS011;13339;50.840;4.346;2023-05-24T12:02:19;11.83;;;3.90;;
25409;SDS011;13339;50.840;4.346;2023-05-24T12:04:45;11.97;;;4.07;;
25409;SDS011;13339;50.840;4.346;2023-05-24T12:07:11;13.77;;;4.50;;
25409;SDS011;13339;50.840;4.346;2023-05-24T12:09:36;8.17;;;3.93;;
25409;SDS011;13339;50.840;4.346;2023-05-24T12:12:02;13.67;;;4.60;;
25409;SDS011;13339;50.840;4.346;2023-05-24T12:14:31;10.67;;;4.40;;
25409;SDS011;13339;50.840;4.346;2023-05-24T12:16:58;16.13;;;4.53;;
25409;SDS011;13339;50.840;4.346;2023-05-24T12:19:25;12.53;;;4.57;;
25409;SDS011;13339;50.840;4.346;2023-05-24T12:21:55;17.80;;;4.73;;
25409;SDS011;13339;50.840;4.346;2023-05-24T12:24:22;13.60;;;5.03;;
25409;SDS011;13339;50.840;4.346;2023-05-24T12:26:49;13.17;;;5.20;;
25409;SDS011;13339;50.840;4.346;2023-05-24T12:29:15;14.10;;;5.00;;
25409;SDS011;13339;50.840;4.346;2023-05-24T12:31:42;11.93;;;4.63;;
25409;SDS011;13339;50.840;4.346;2023-05-24T12:34:11;12.97;;;4.60;;
25409;SDS011;13339;50.840;4.346;2023-05-24T12:36:38;14.37;;;4.77;;
25409;SDS011;13339;50.840;4.346;2023-05-24T12:39:19;11.93;;;4.57;;
25409;SDS011;13339;50.840;4.346;2023-05-24T12:41:55;15.13;;;5.03;;
25409;SDS011;13339;50.840;4.346;2023-05-24T12:44:25;12.33;;;4.60;;
25409;SDS011;13339;50.840;4.346;2023-05-24T12:46:52;16.10;;;5.80;;
25409;SDS011;13339;50.840;4.346;2023-05-24T12:49:19;16.97;;;6.07;;
25409;SDS011;13339;50.840;4.346;2023-05-24T12:51:46;14.27;;;5.77;;
25409;SDS011;13339;50.840;4.346;2023-05-24T12:54:11;14.90;;;5.90;;
25409;SDS011;13339;50.840;4.346;2023-05-24T12:56:37;13.37;;;5.53;;
25409;SDS011;13339;50.840;4.346;2023-05-24T12:59:02;11.30;;;5.83;;
25409;SDS011;13339;50.840;4.346;2023-05-24T13:01:28;18.53;;;6.27;;
25409;SDS011;13339;50.840;4.346;2023-05-24T13:03:54;16.70;;;5.90;;
25409;SDS011;13339;50.840;4.346;2023-05-24T13:06:20;12.67;;;5.33;;
25409;SDS011;13339;50.840;4.346;2023-05-24T13:08:46;16.37;;;5.30;;
25409;SDS011;13339;50.840;4.346;2023-05-24T13:11:12;16.53;;;5.23;;
25409;SDS011;13339;50.840;4.346;2023-05-24T13:13:37;13.40;;;5.40;;
25409;SDS011;13339;50.840;4.346;2023-05-24T13:16:03;16.10;;;5.13;;
25409;SDS011;13339;50.840;4.346;2023-05-24T13:18:31;10.37;;;4.83;;
25409;SDS011;13339;50.840;4.346;2023-05-24T13:20:57;14.27;;;5.30;;
25409;SDS011;13339;50.840;4.346;2023-05-24T13:23:24;18.40;;;5.90;;
25409;SDS011;13339;50.840;4.346;2023-05-24T13:25:51;10.47;;;4.13;;
25409;SDS011;13339;50.840;4.346;2023-05-24T13:28:17;10.63;;;4.40;;
25409;SDS011;13339;50.840;4.346;2023-05-24T13:30:43;11.83;;;4.70;;
25409;SDS011;13339;50.840;4.346;2023-05-24T13:33:10;15.90;;;5.93;;
25409;SDS011;13339;50.840;4.346;2023-05-24T13:35:36;10.37;;;5.40;;
25409;SDS011;13339;50.840;4.346;2023-05-24T13:38:02;13.57;;;5.57;;
25409;SDS011;13339;50.840;4.346;2023-05-24T13:40:28;18.30;;;5.40;;
25409;SDS011;13339;50.840;4.346;2023-05-24T13:42:54;13.07;;;5.27;;
25409;SDS011;13339;50.840;4.346;2023-05-24T13:45:21;16.77;;;5.60;;
25409;SDS011;13339;50.840;4.346;2023-05-24T13:47:47;10.77;;;5.47;;
25409;SDS011;13339;50.840;4.346;2023-05-24T13:50:13;10.83;;;5.00;;
25409;SDS011;13339;50.840;4.346;2023-05-24T13:52:39;10.20;;;4.53;;
25409;SDS011;13339;50.840;4.346;2023-05-24T13:55:05;8.20;;;4.03;;
25409;SDS011;13339;50.840;4.346;2023-05-24T13:57:31;10.57;;;4.63;;
25409;SDS011;13339;50.840;4.346;2023-05-24T13:59:57;12.17;;;5.47;;
25409;SDS011;13339;50.840;4.346;2023-05-24T14:02:24;13.60;;;4.73;;
25409;SDS011;13339;50.840;4.346;2023-05-24T14:04:50;9.13;;;4.73;;
25409;SDS011;13339;50.840;4.346;2023-05-24T14:07:17;13.90;;;5.80;;
25409;SDS011;13339;50.840;4.346;2023-05-24T14:09:43;15.03;;;5.27;;
25409;SDS011;13339;50.840;4.346;2023-05-24T14:12:09;14.73;;;5.17;;
25409;SDS011;13339;50.840;4.346;2023-05-24T14:14:35;12.77;;;5.87;;
25409;SDS011;13339;50.840;4.346;2023-05-24T14:17:00;15.63;;;5.40;;
25409;SDS011;13339;50.840;4.346;2023-05-24T14:19:26;21.33;;;9.00;;
25409;SDS011;13339;50.840;4.346;2023-05-24T14:21:51;11.87;;;5.60;;
25409;SDS011;13339;50.840;4.346;2023-05-24T14:24:17;18.80;;;5.73;;
25409;SDS011;13339;50.840;4.346;2023-05-24T14:26:43;17.93;;;6.10;;
25409;SDS011;13339;50.840;4.346;2023-05-24T14:29:11;17.13;;;6.03;;
25409;SDS011;13339;50.840;4.346;2023-05-24T14:31:37;12.20;;;5.73;;
25409;SDS011;13339;50.840;4.346;2023-05-24T14:34:07;18.77;;;6.37;;
25409;SDS011;13339;50.840;4.346;2023-05-24T14:36:34;15.20;;;5.93;;
25409;SDS011;13339;50.840;4.346;2023-05-24T14:39:02;15.83;;;5.83;;
25409;SDS011;13339;50.840;4.346;2023-05-24T14:41:31;16.77;;;5.40;;
25409;SDS011;13339;50.840;4.346;2023-05-24T14:43:57;18.00;;;5.47;;
25409;SDS011;13339;50.840;4.346;2023-05-24T14:46:23;15.27;;;5.97;;
25409;SDS011;13339;50.840;4.346;2023-05-24T14:48:49;16.60;;;5.93;;
25409;SDS011;13339;50.840;4.346;2023-05-24T14:51:14;16.53;;;5.63;;
25409;SDS011;13339;50.840;4.346;2023-05-24T14:53:40;15.60;;;5.73;;
25409;SDS011;13339;50.840;4.346;2023-05-24T14:56:05;16.43;;;5.43;;